createdAt,value
2018-10-11T00:00:14.570Z,23.27
2018-10-11T00:02:45.775Z,20.83
2018-10-11T00:05:16.868Z,22.97
2018-10-11T00:07:48.046Z,22.77
2018-10-11T00:10:19.163Z,23.30
2018-10-11T00:12:50.377Z,19.37
2018-10-11T00:15:21.566Z,22.80
2018-10-11T00:17:52.778Z,21.90
2018-10-11T00:20:23.931Z,22.47
2018-10-11T00:22:55.083Z,23.80
2018-10-11T00:25:26.194Z,24.47
2018-10-11T00:27:57.342Z,24.03
2018-10-11T00:30:28.564Z,23.40
2018-10-11T00:32:59.697Z,26.60
2018-10-11T00:35:30.812Z,28.53
2018-10-11T00:38:02.106Z,22.93
2018-10-11T00:40:33.169Z,24.07
2018-10-11T00:43:04.434Z,23.83
2018-10-11T00:45:35.533Z,22.23
2018-10-11T00:48:06.882Z,24.57
2018-10-11T00:50:37.994Z,22.27
2018-10-11T00:53:09.073Z,23.10
2018-10-11T00:55:40.106Z,25.50
2018-10-11T00:58:11.415Z,24.00
2018-10-11T01:00:42.538Z,23.37
2018-10-11T01:03:13.725Z,24.00
2018-10-11T01:05:44.840Z,23.40
2018-10-11T01:08:16.069Z,23.70
2018-10-11T01:10:47.277Z,24.80
2018-10-11T01:13:18.473Z,24.73
2018-10-11T01:15:49.607Z,26.77
2018-10-11T01:18:20.827Z,23.93
2018-10-11T01:20:51.913Z,23.50
2018-10-11T01:23:23.167Z,25.07
2018-10-11T01:25:54.329Z,23.97
2018-10-11T01:28:25.854Z,25.00
2018-10-11T01:31:01.730Z,25.43
2018-10-11T01:33:33.027Z,24.73
2018-10-11T01:36:04.221Z,25.80
2018-10-11T01:38:35.460Z,23.77
2018-10-11T01:41:06.720Z,23.77
2018-10-11T01:43:37.995Z,25.23
2018-10-11T01:46:09.226Z,25.27
2018-10-11T01:48:40.515Z,28.23
2018-10-11T01:51:11.874Z,27.47
2018-10-11T01:53:43.103Z,25.70
2018-10-11T01:56:14.268Z,25.67
2018-10-11T01:58:45.421Z,26.83
2018-10-11T02:01:16.506Z,25.03
2018-10-11T02:03:47.762Z,26.03
2018-10-11T02:06:18.924Z,25.30
2018-10-11T02:08:50.192Z,29.83
2018-10-11T02:11:21.314Z,27.70
2018-10-11T02:13:52.458Z,26.07
2018-10-11T02:16:23.582Z,28.40
2018-10-11T02:18:54.757Z,26.63
2018-10-11T02:21:25.878Z,26.90
2018-10-11T02:23:57.038Z,26.63
2018-10-11T02:26:28.131Z,27.20
2018-10-11T02:28:59.326Z,26.30
2018-10-11T02:31:30.491Z,26.07
2018-10-11T02:34:01.856Z,27.07
2018-10-11T02:36:32.970Z,27.90
2018-10-11T02:39:04.266Z,29.03
2018-10-11T02:41:35.371Z,26.80
2018-10-11T02:44:06.622Z,27.37
2018-10-11T02:46:37.653Z,27.13
2018-10-11T02:49:08.931Z,25.17
2018-10-11T02:51:40.117Z,27.93
2018-10-11T02:54:11.387Z,28.83
2018-10-11T02:56:42.877Z,31.03
2018-10-11T02:59:38.984Z,28.30
2018-10-11T03:02:14.990Z,28.87
2018-10-11T03:04:48.888Z,28.73
2018-10-11T03:07:20.910Z,27.03
2018-10-11T03:09:52.374Z,27.70
2018-10-11T03:12:23.577Z,27.17
2018-10-11T03:14:54.677Z,29.00
2018-10-11T03:17:25.838Z,28.17
2018-10-11T03:19:56.894Z,27.90
2018-10-11T03:22:27.912Z,31.57
2018-10-11T03:24:59.058Z,26.67
2018-10-11T03:27:30.231Z,27.23
2018-10-11T03:30:01.352Z,30.83
2018-10-11T03:32:32.405Z,27.73
2018-10-11T03:35:03.547Z,29.30
2018-10-11T03:37:34.623Z,29.07
2018-10-11T03:40:05.807Z,27.97
2018-10-11T03:42:36.778Z,30.27
2018-10-11T03:45:08.024Z,27.57
2018-10-11T03:47:39.127Z,29.47
2018-10-11T03:50:10.229Z,28.37
2018-10-11T03:52:41.402Z,29.37
2018-10-11T03:55:12.524Z,26.53
2018-10-11T03:57:43.557Z,29.73
2018-10-11T04:00:14.627Z,28.13
2018-10-11T04:02:45.698Z,28.80
2018-10-11T04:05:16.839Z,28.07
2018-10-11T04:07:48.067Z,31.50
2018-10-11T04:10:19.171Z,30.30
2018-10-11T04:12:50.287Z,29.90
2018-10-11T04:15:21.495Z,29.53
2018-10-11T04:17:52.597Z,29.20
2018-10-11T04:20:23.758Z,30.23
2018-10-11T04:22:54.765Z,32.10
2018-10-11T04:25:26.415Z,29.97
2018-10-11T04:27:57.614Z,30.20
2018-10-11T04:30:28.529Z,28.97
2018-10-11T04:33:00.555Z,29.57
2018-10-11T04:35:31.475Z,26.97
2018-10-11T04:38:01.614Z,32.33
2018-10-11T04:40:32.774Z,29.27
2018-10-11T04:43:03.037Z,30.20
2018-10-11T04:45:33.030Z,25.80
2018-10-11T04:48:03.072Z,31.33
2018-10-11T04:50:33.249Z,29.63
2018-10-11T04:53:03.297Z,30.80
2018-10-11T04:55:33.400Z,28.47
2018-10-11T04:58:03.452Z,31.93
2018-10-11T05:00:33.545Z,29.30
2018-10-11T05:03:03.568Z,30.50
2018-10-11T05:05:33.609Z,32.17
2018-10-11T05:08:03.678Z,26.50
2018-10-11T05:10:33.859Z,31.40
2018-10-11T05:13:04.054Z,31.60
2018-10-11T05:15:35.569Z,33.10
2018-10-11T05:18:07.466Z,33.40
2018-10-11T05:20:37.574Z,30.23
2018-10-11T05:23:07.960Z,32.33
2018-10-11T05:25:38.052Z,28.43
2018-10-11T05:28:08.186Z,30.60
2018-10-11T05:30:44.697Z,33.33
2018-10-11T05:33:15.961Z,33.10
2018-10-11T05:35:46.038Z,31.17
2018-10-11T05:38:16.181Z,32.13
2018-10-11T05:40:46.321Z,38.40
2018-10-11T05:43:16.851Z,34.53
2018-10-11T05:45:54.924Z,36.00
2018-10-11T05:48:27.010Z,32.73
2018-10-11T05:50:58.638Z,32.43
2018-10-11T05:53:29.862Z,35.50
2018-10-11T05:56:00.469Z,36.20
2018-10-11T05:58:31.013Z,32.10
2018-10-11T06:01:01.276Z,33.47
2018-10-11T06:03:31.636Z,33.07
2018-10-11T06:06:01.728Z,34.60
2018-10-11T06:08:31.964Z,35.43
2018-10-11T06:11:02.364Z,35.83
2018-10-11T06:13:36.059Z,34.10
2018-10-11T06:16:06.312Z,34.17
2018-10-11T06:18:36.699Z,34.20
2018-10-11T06:21:07.041Z,31.17
2018-10-11T06:23:37.239Z,31.67
2018-10-11T06:26:07.735Z,29.97
2018-10-11T06:28:38.109Z,30.57
2018-10-11T06:31:08.276Z,32.40
2018-10-11T06:33:38.629Z,29.70
2018-10-11T06:36:08.950Z,28.03
2018-10-11T06:38:39.165Z,30.63
2018-10-11T06:41:09.425Z,29.70
2018-10-11T06:43:40.289Z,29.10
2018-10-11T06:46:10.593Z,29.53
2018-10-11T06:48:41.048Z,27.13
2018-10-11T06:51:11.252Z,32.90
2018-10-11T06:53:41.728Z,28.77
2018-10-11T06:56:11.825Z,30.13
2018-10-11T07:01:44.300Z,27.53
2018-10-11T07:04:14.548Z,28.37
2018-10-11T07:06:44.658Z,29.60
2018-10-11T07:09:14.702Z,28.53
2018-10-11T07:11:44.797Z,27.63
2018-10-11T07:14:14.830Z,28.43
2018-10-11T07:16:44.915Z,27.93
2018-10-11T07:19:15.003Z,31.90
2018-10-11T07:21:45.778Z,26.07
2018-10-11T07:24:15.925Z,28.83
2018-10-11T07:26:46.020Z,28.67
2018-10-11T07:29:16.136Z,26.30
2018-10-11T07:31:46.292Z,27.63
2018-10-11T07:34:16.421Z,26.60
2018-10-11T07:36:46.539Z,27.47
2018-10-11T07:39:16.628Z,30.70
2018-10-11T07:41:46.748Z,27.50
2018-10-11T07:44:16.822Z,30.33
2018-10-11T07:46:46.935Z,26.90
2018-10-11T07:49:17.001Z,27.47
2018-10-11T07:51:47.170Z,25.77
2018-10-11T07:54:18.342Z,28.33
2018-10-11T07:56:48.456Z,26.10
2018-10-11T07:59:18.522Z,24.97
2018-10-11T08:01:48.747Z,26.77
2018-10-11T08:04:18.840Z,29.00
2018-10-11T08:06:48.921Z,26.77
2018-10-11T08:09:19.004Z,25.40
2018-10-11T08:11:49.237Z,24.87
2018-10-11T08:14:19.421Z,24.73
2018-10-11T08:16:49.692Z,24.93
2018-10-11T08:19:19.842Z,25.47
2018-10-11T08:21:49.789Z,24.00
2018-10-11T08:24:20.024Z,23.93
2018-10-11T08:26:50.144Z,25.23
2018-10-11T08:29:20.246Z,25.10
2018-10-11T08:31:50.363Z,23.00
2018-10-11T08:34:20.524Z,25.13
2018-10-11T08:36:50.630Z,27.60
2018-10-11T08:39:20.713Z,27.03
2018-10-11T08:41:50.763Z,25.30
2018-10-11T08:44:20.959Z,25.17
2018-10-11T08:46:51.027Z,24.37
2018-10-11T08:49:21.157Z,25.10
2018-10-11T08:51:51.252Z,26.13
2018-10-11T08:54:26.269Z,24.00
2018-10-11T08:56:56.458Z,22.30
2018-10-11T08:59:26.639Z,23.20
2018-10-11T09:01:56.706Z,24.33
2018-10-11T09:04:26.813Z,21.97
2018-10-11T09:06:56.863Z,22.13
2018-10-11T09:09:27.004Z,21.13
2018-10-11T09:11:57.086Z,20.93
2018-10-11T09:14:27.264Z,23.13
2018-10-11T09:16:57.352Z,22.20
2018-10-11T09:19:27.481Z,21.60
2018-10-11T09:21:57.505Z,22.73
2018-10-11T09:24:27.669Z,21.43
2018-10-11T09:26:57.832Z,22.07
2018-10-11T09:29:27.917Z,20.87
2018-10-11T09:31:57.994Z,22.00
2018-10-11T09:34:28.177Z,21.77
2018-10-11T09:36:58.300Z,20.27
2018-10-11T09:39:28.365Z,19.87
2018-10-11T09:41:58.466Z,20.53
2018-10-11T09:44:28.719Z,20.97
2018-10-11T09:46:58.822Z,19.90
2018-10-11T09:49:28.920Z,19.63
2018-10-11T09:51:59.021Z,20.23
2018-10-11T09:54:29.228Z,19.90
2018-10-11T09:57:31.044Z,18.67
2018-10-11T10:00:02.438Z,19.17
2018-10-11T10:02:32.760Z,19.67
2018-10-11T10:05:04.036Z,19.57
2018-10-11T10:07:34.197Z,18.50
2018-10-11T10:10:04.519Z,17.60
2018-10-11T10:12:34.549Z,19.80
2018-10-11T10:15:05.024Z,18.80
2018-10-11T10:17:35.662Z,21.67
2018-10-11T10:20:05.977Z,18.60
2018-10-11T10:22:36.113Z,17.67
2018-10-11T10:25:06.317Z,18.77
2018-10-11T10:27:36.488Z,17.47
2018-10-11T10:30:12.268Z,17.77
2018-10-11T10:32:42.325Z,19.30
2018-10-11T10:35:12.445Z,18.50
2018-10-11T10:37:42.531Z,18.20
2018-10-11T10:40:12.641Z,21.27
2018-10-11T10:42:42.682Z,17.50
2018-10-11T10:45:12.839Z,17.40
2018-10-11T10:47:42.948Z,18.67
2018-10-11T10:50:13.052Z,15.67
2018-10-11T10:52:43.157Z,15.83
2018-10-11T10:55:13.245Z,15.60
2018-10-11T10:57:43.389Z,16.63
2018-10-11T11:00:13.541Z,15.60
2018-10-11T11:02:43.649Z,16.00
2018-10-11T11:05:13.742Z,15.13
2018-10-11T11:07:43.948Z,14.63
2018-10-11T11:10:14.081Z,15.63
2018-10-11T11:12:44.228Z,14.50
2018-10-11T11:15:14.325Z,15.73
2018-10-11T11:17:44.546Z,15.53
2018-10-11T11:20:14.608Z,14.67
2018-10-11T11:22:44.710Z,15.03
2018-10-11T11:25:14.873Z,16.40
2018-10-11T11:27:44.952Z,13.47
2018-10-11T11:30:15.115Z,15.60
2018-10-11T11:32:45.161Z,14.30
2018-10-11T11:35:15.287Z,14.07
2018-10-11T11:37:45.397Z,13.70
2018-10-11T11:40:15.553Z,15.30
2018-10-11T11:42:45.635Z,14.70
2018-10-11T11:45:15.756Z,13.57
2018-10-11T11:47:45.847Z,13.30
2018-10-11T11:50:15.949Z,13.57
2018-10-11T11:52:46.001Z,14.43
2018-10-11T11:55:16.110Z,13.67
2018-10-11T11:57:46.182Z,14.67
2018-10-11T12:00:16.277Z,14.87
2018-10-11T12:02:46.463Z,13.33
2018-10-11T12:05:16.605Z,14.73
2018-10-11T12:07:46.644Z,13.50
2018-10-11T12:10:16.808Z,14.30
2018-10-11T12:12:58.496Z,12.60
2018-10-11T12:15:29.614Z,14.23
2018-10-11T12:18:00.844Z,13.30
2018-10-11T12:20:33.977Z,13.83
2018-10-11T12:23:05.403Z,13.43
2018-10-11T12:25:35.727Z,13.10
2018-10-11T12:28:05.813Z,13.00
2018-10-11T12:30:35.967Z,14.13
2018-10-11T12:33:06.168Z,14.17
2018-10-11T12:35:36.270Z,13.30
2018-10-11T12:38:06.353Z,13.80
2018-10-11T12:40:36.548Z,12.90
2018-10-11T12:43:06.656Z,13.20
2018-10-11T12:45:37.519Z,12.77
2018-10-11T12:48:06.954Z,13.23
2018-10-11T12:50:37.261Z,13.00
2018-10-11T12:53:08.521Z,12.90
2018-10-11T12:55:38.628Z,13.80
2018-10-11T12:58:08.755Z,13.30
2018-10-11T13:00:38.860Z,14.30
2018-10-11T13:03:09.256Z,13.20
2018-10-11T13:05:39.369Z,13.33
2018-10-11T13:08:09.520Z,12.30
2018-10-11T13:10:39.630Z,13.30
2018-10-11T13:13:10.025Z,12.60
2018-10-11T13:15:40.188Z,12.27
2018-10-11T13:18:10.260Z,12.03
2018-10-11T13:20:40.393Z,11.67
2018-10-11T13:23:14.513Z,12.67
2018-10-11T13:25:41.109Z,13.60
2018-10-11T13:28:11.452Z,12.13
2018-10-11T13:30:41.725Z,12.88
2018-10-11T13:33:11.624Z,12.03
2018-10-11T13:35:41.686Z,12.95
2018-10-11T13:38:11.780Z,11.25
2018-10-11T13:40:42.122Z,11.57
2018-10-11T13:43:11.920Z,10.98
2018-10-11T13:45:41.965Z,12.20
2018-10-11T13:48:12.053Z,12.30
2018-10-11T13:50:42.098Z,12.10
2018-10-11T13:53:15.422Z,11.28
2018-10-11T13:55:46.940Z,11.88
2018-10-11T13:58:12.481Z,12.28
2018-10-11T14:00:42.726Z,12.98
2018-10-11T14:03:12.852Z,11.63
2018-10-11T14:05:42.904Z,13.95
2018-10-11T14:08:13.084Z,12.68
2018-10-11T14:10:43.234Z,12.13
2018-10-11T14:13:15.772Z,11.28
2018-10-11T14:15:43.454Z,12.67
2018-10-11T14:18:14.037Z,13.93
2018-10-11T14:20:44.236Z,11.70
2018-10-11T14:23:14.362Z,12.53
2018-10-11T14:25:44.428Z,11.93
2018-10-11T14:28:14.528Z,12.10
2018-10-11T14:30:44.585Z,13.40
2018-10-11T14:33:14.680Z,13.97
2018-10-11T14:35:44.824Z,11.97
2018-10-11T14:38:14.944Z,12.03
2018-10-11T14:40:45.014Z,12.10
2018-10-11T14:43:16.181Z,16.50
2018-10-11T14:45:46.437Z,14.33
2018-10-11T14:48:16.567Z,11.73
2018-10-11T14:50:46.701Z,11.43
2018-10-11T14:53:16.829Z,12.13
2018-10-11T14:55:47.013Z,13.03
2018-10-11T14:58:17.062Z,11.25
2018-10-11T15:00:47.214Z,12.05
2018-10-11T15:03:17.372Z,10.82
2018-10-11T15:05:47.447Z,11.35
2018-10-11T15:08:17.500Z,10.98
2018-10-11T15:10:47.632Z,11.83
2018-10-11T15:13:17.752Z,11.88
2018-10-11T15:15:48.061Z,11.95
2018-10-11T15:18:18.145Z,11.05
2018-10-11T15:20:48.260Z,10.98
2018-10-11T15:23:18.329Z,12.13
2018-10-11T15:25:48.476Z,12.82
2018-10-11T15:28:18.564Z,12.47
2018-10-11T15:30:48.701Z,12.18
2018-10-11T15:33:18.812Z,13.60
2018-10-11T15:35:49.039Z,11.88
2018-10-11T15:38:19.097Z,13.60
2018-10-11T15:40:49.204Z,12.10
2018-10-11T15:43:19.281Z,11.83
2018-10-11T15:45:49.409Z,14.05
2018-10-11T15:48:19.460Z,12.60
2018-10-11T15:50:49.679Z,11.67
2018-10-11T15:53:19.808Z,11.33
2018-10-11T15:55:49.948Z,13.00
2018-10-11T15:58:20.072Z,12.43
2018-10-11T16:00:50.240Z,12.47
2018-10-11T16:03:20.376Z,12.03
2018-10-11T16:05:50.661Z,13.07
2018-10-11T16:08:20.735Z,13.03
2018-10-11T16:10:50.861Z,11.87
2018-10-11T16:13:20.954Z,13.03
2018-10-11T16:15:51.017Z,12.13
2018-10-11T16:18:21.139Z,12.13
2018-10-11T16:20:51.252Z,12.60
2018-10-11T16:23:21.389Z,11.80
2018-10-11T16:25:51.471Z,13.13
2018-10-11T16:28:21.676Z,13.33
2018-10-11T16:30:51.716Z,13.70
2018-10-11T16:33:21.945Z,15.50
2018-10-11T16:35:52.096Z,13.50
2018-10-11T16:38:22.266Z,12.67
2018-10-11T16:40:52.304Z,13.50
2018-10-11T16:43:22.422Z,16.27
2018-10-11T16:45:52.582Z,18.93
2018-10-11T16:48:22.709Z,19.53
2018-10-11T16:50:52.832Z,19.40
2018-10-11T16:53:22.942Z,21.53
2018-10-11T16:55:53.032Z,18.40
2018-10-11T16:58:23.165Z,17.20
2018-10-11T17:00:53.250Z,17.87
2018-10-11T17:03:23.959Z,18.17
2018-10-11T17:05:54.042Z,16.87
2018-10-11T17:08:24.128Z,15.27
2018-10-11T17:10:54.196Z,14.50
2018-10-11T17:13:24.289Z,14.90
2018-10-11T17:15:54.332Z,14.37
2018-10-11T17:18:24.374Z,13.63
2018-10-11T17:20:54.416Z,14.87
2018-10-11T17:23:24.576Z,15.60
2018-10-11T17:25:54.641Z,13.70
2018-10-11T17:28:24.707Z,16.53
2018-10-11T17:30:54.839Z,17.00
2018-10-11T17:33:32.564Z,15.70
2018-10-11T17:36:02.816Z,16.70
2018-10-11T17:38:33.464Z,15.37
2018-10-11T17:41:04.709Z,15.17
2018-10-11T17:43:34.825Z,14.27
2018-10-11T17:46:04.952Z,14.43
2018-10-11T17:48:35.053Z,13.17
2018-10-11T17:51:05.225Z,12.67
2018-10-11T17:53:35.594Z,15.17
2018-10-11T17:56:05.836Z,14.07
2018-10-11T17:58:35.956Z,14.70
2018-10-11T18:01:06.166Z,14.70
2018-10-11T18:03:36.293Z,13.00
2018-10-11T18:06:06.390Z,13.27
2018-10-11T18:08:36.846Z,13.00
2018-10-11T18:11:07.086Z,14.57
2018-10-11T18:13:37.202Z,13.33
2018-10-11T18:16:07.525Z,14.23
2018-10-11T18:18:37.700Z,14.77
2018-10-11T18:21:07.917Z,13.50
2018-10-11T18:23:38.021Z,15.17
2018-10-11T18:26:08.299Z,12.77
2018-10-11T18:28:38.509Z,13.43
2018-10-11T18:31:09.762Z,13.07
2018-10-11T18:33:39.956Z,18.77
2018-10-11T18:36:10.267Z,12.73
2018-10-11T18:38:41.688Z,14.73
2018-10-11T18:41:11.943Z,12.57
2018-10-11T18:43:42.046Z,13.17
2018-10-11T18:46:12.505Z,12.07
2018-10-11T18:48:44.168Z,14.73
2018-10-11T18:51:14.363Z,14.40
2018-10-11T18:53:45.473Z,13.50
2018-10-11T18:56:15.981Z,13.23
2018-10-11T18:58:46.282Z,13.97
2018-10-11T19:01:16.491Z,13.23
2018-10-11T19:03:46.827Z,13.27
2018-10-11T19:06:17.065Z,15.77
2018-10-11T19:08:48.371Z,14.77
2018-10-11T19:11:18.625Z,26.30
2018-10-11T19:13:48.854Z,25.00
2018-10-11T19:16:19.046Z,19.00
2018-10-11T19:18:49.879Z,16.33
2018-10-11T19:21:20.043Z,15.30
2018-10-11T19:23:51.525Z,15.23
2018-10-11T19:26:22.485Z,16.37
2018-10-11T19:28:52.848Z,16.33
2018-10-11T19:31:24.243Z,16.30
2018-10-11T19:33:54.485Z,15.63
2018-10-11T19:36:25.035Z,16.23
2018-10-11T19:38:55.455Z,15.63
2018-10-11T19:41:25.773Z,16.43
2018-10-11T19:43:56.025Z,16.93
2018-10-11T19:46:26.283Z,16.87
2018-10-11T19:48:56.475Z,15.30
2018-10-11T19:51:27.996Z,15.13
2018-10-11T19:54:01.082Z,15.00
2018-10-11T19:56:34.177Z,15.60
2018-10-11T19:59:04.756Z,14.97
2018-10-11T20:01:34.906Z,15.83
2018-10-11T20:04:06.758Z,15.00
2018-10-11T20:06:39.104Z,15.37
2018-10-11T20:09:10.032Z,15.20
2018-10-11T20:11:40.580Z,17.43
2018-10-11T20:14:11.119Z,16.30
2018-10-11T20:16:41.877Z,19.23
2018-10-11T20:19:14.069Z,20.90
2018-10-11T20:21:44.512Z,16.73
2018-10-11T20:24:14.738Z,16.67
2018-10-11T20:26:45.406Z,16.40
2018-10-11T20:29:16.048Z,15.33
2018-10-11T20:31:46.735Z,16.93
2018-10-11T20:34:16.988Z,15.50
2018-10-11T20:36:47.115Z,16.27
2018-10-11T20:39:21.015Z,15.17
2018-10-11T20:41:51.375Z,16.53
2018-10-11T20:44:22.778Z,16.70
2018-10-11T20:46:53.010Z,15.40
2018-10-11T20:49:24.709Z,16.87
2018-10-11T20:51:55.219Z,16.30
2018-10-11T20:54:25.545Z,16.53
2018-10-11T20:56:55.706Z,16.70
2018-10-11T20:59:25.969Z,16.47
2018-10-11T21:01:57.463Z,16.03
2018-10-11T21:04:31.612Z,16.57
2018-10-11T21:07:04.185Z,16.87
2018-10-11T21:09:35.810Z,18.70
2018-10-11T21:12:07.058Z,17.97
2018-10-11T21:14:39.256Z,18.03
2018-10-11T21:17:10.635Z,17.70
2018-10-11T21:19:41.926Z,19.47
2018-10-11T21:22:13.660Z,17.03
2018-10-11T21:25:23.661Z,17.63
2018-10-11T21:27:55.598Z,18.93
2018-10-11T21:30:28.342Z,18.73
2018-10-11T21:33:00.691Z,18.23
2018-10-11T21:35:34.087Z,18.00
2018-10-11T21:38:06.317Z,18.50
2018-10-11T21:40:42.585Z,18.73
2018-10-11T21:43:16.218Z,19.30
2018-10-11T21:45:48.688Z,21.27
2018-10-11T21:48:22.328Z,18.63
2018-10-11T21:50:54.786Z,20.43
2018-10-11T21:53:26.106Z,18.90
2018-10-11T21:55:57.772Z,18.67
2018-10-11T21:58:30.859Z,18.43
2018-10-11T22:01:07.197Z,19.70
2018-10-11T22:03:38.959Z,18.13
2018-10-11T22:06:12.005Z,18.40
2018-10-11T22:08:43.897Z,19.57
2018-10-11T22:11:20.065Z,17.93
2018-10-11T22:13:54.881Z,21.23
2018-10-11T22:16:26.757Z,19.63
2018-10-11T22:18:58.452Z,19.33
2018-10-11T22:21:29.936Z,20.43
2018-10-11T22:24:01.050Z,19.97
2018-10-11T22:26:32.210Z,19.13
2018-10-11T22:29:05.797Z,20.80
2018-10-11T22:31:37.320Z,19.80
2018-10-11T22:34:08.655Z,19.10
2018-10-11T22:36:40.022Z,19.40
2018-10-11T22:39:13.246Z,20.27
2018-10-11T22:41:44.559Z,19.47
2018-10-11T22:44:16.864Z,20.77
2018-10-11T22:46:48.265Z,19.20
2018-10-11T22:49:21.055Z,19.47
2018-10-11T22:51:52.339Z,19.20
2018-10-11T22:54:24.926Z,21.03
2018-10-11T22:56:56.312Z,24.23
2018-10-11T22:59:28.195Z,19.67
2018-10-11T23:01:59.611Z,21.10
2018-10-11T23:04:33.694Z,23.60
2018-10-11T23:07:05.224Z,21.80
2018-10-11T23:09:37.694Z,21.70
2018-10-11T23:12:09.967Z,20.43
2018-10-11T23:14:41.495Z,21.13
2018-10-11T23:17:14.358Z,20.60
2018-10-11T23:19:45.732Z,22.33
2018-10-11T23:22:18.968Z,21.07
2018-10-11T23:24:50.628Z,20.83
2018-10-11T23:27:22.549Z,20.60
2018-10-11T23:29:54.590Z,19.13
2018-10-11T23:32:26.824Z,19.93
2018-10-11T23:34:58.295Z,19.60
2018-10-11T23:37:29.467Z,18.70
2018-10-11T23:40:02.595Z,19.90
2018-10-11T23:42:33.812Z,20.47
2018-10-11T23:45:06.146Z,20.27
2018-10-11T23:47:37.524Z,19.93
2018-10-11T23:50:09.241Z,19.77
2018-10-11T23:52:42.665Z,20.07
2018-10-11T23:55:14.686Z,19.87
2018-10-11T23:57:46.505Z,20.37
